Airport ICAO


11:04 UTC

20°C

Broken clouds


An affordable passengers' Moving Map for your aircraft. Made for the iPad and the iPhone
More information here

EGLF Farnborough


London UNITED KINGDOM   VFR


METAR EGLF 191050Z 23017KT 9999 BKN015 20/16 Q1018 0h14min

TAF EGLF 190759Z 1909/1918 23012KT 9999 BKN013 TEMPO 1909/1914 25015G25KT BECMG 1910/1913 BKN016 BECMG 1914/1917 29009KT 3h05min





NOTAMS

OPEN